Time;durP1;ratioP1;P1;durP2;ratioP2;P2;SDS_P1;SDS_P2;PMS_P1;PMS_P2;Temp;Humidity;BMP_temperature;BMP_pressure;BME280_temperature;BME280_humidity;BME280_pressure;Samples;Min_cycle;Max_cycle;Signal;HPM_P1;HPM_P2
2022/07/13 00:00:21;;;;;;;31.50;29.63;;;;;;;15.12;100.00;101297.03;6040341;23;20027;-84
2022/07/13 00:02:48;;;;;;;32.65;30.73;;;;;;;14.95;100.00;101297.84;6039921;23;20024;-82
2022/07/13 00:05:15;;;;;;;30.92;28.88;;;;;;;15.06;100.00;101300.59;6040245;23;20038;-82
2022/07/13 00:07:42;;;;;;;44.47;42.38;;;;;;;14.97;100.00;101299.25;6039917;23;20023;-81
2022/07/13 00:10:12;;;;;;;39.17;37.17;;;;;;;14.91;100.00;101296.66;6039863;23;20034;-81
2022/07/13 00:12:39;;;;;;;37.28;35.22;;;;;;;14.73;100.00;101300.91;6039568;23;20023;-82
2022/07/13 00:15:08;;;;;;;39.42;37.33;;;;;;;14.46;100.00;101297.59;6040231;23;20066;-83
2022/07/13 00:17:41;;;;;;;45.70;43.30;;;;;;;13.86;100.00;101300.69;6040651;23;20023;-81
2022/07/13 00:20:10;;;;;;;42.63;40.10;;;;;;;13.78;100.00;101295.56;6039873;23;20024;-83
2022/07/13 00:22:39;;;;;;;43.30;40.78;;;;;;;14.06;100.00;101294.41;6040470;23;20027;-83
2022/07/13 00:25:07;;;;;;;42.35;39.83;;;;;;;14.19;100.00;101296.97;6040285;23;20062;-81
2022/07/13 00:27:37;;;;;;;35.60;33.20;;;;;;;14.36;100.00;101300.78;6039759;23;20035;-81
2022/07/13 00:30:04;;;;;;;44.38;41.88;;;;;;;14.65;100.00;101304.69;6040095;23;20027;-83
2022/07/13 00:32:31;;;;;;;38.50;36.50;;;;;;;14.47;100.00;101301.94;6039518;23;20767;-81
2022/07/13 00:34:58;;;;;;;36.13;33.92;;;;;;;14.29;100.00;101304.53;6040194;23;20019;-80
2022/07/13 00:37:26;;;;;;;39.25;36.88;;;;;;;14.07;100.00;101314.72;6040015;23;20034;-83
2022/07/13 00:39:54;;;;;;;35.80;33.42;;;;;;;13.62;100.00;101317.44;6040190;23;20023;-81
2022/07/13 00:42:22;;;;;;;39.22;36.58;;;;;;;14.30;100.00;101312.31;6040186;23;20092;-81
2022/07/13 00:44:50;;;;;;;46.65;44.13;;;;;;;14.10;100.00;101317.81;6040062;23;20027;-83
2022/07/13 00:47:18;;;;;;;42.58;39.92;;;;;;;14.22;100.00;101317.94;6039226;23;20034;-82
2022/07/13 00:49:46;;;;;;;38.92;36.45;;;;;;;14.03;100.00;101308.19;6039516;23;20019;-81
2022/07/13 00:52:13;;;;;;;41.22;38.88;;;;;;;14.62;100.00;101313.16;6039754;23;20337;-82
2022/07/13 00:54:43;;;;;;;41.65;39.10;;;;;;;13.65;100.00;101312.47;6040387;23;20034;-81
2022/07/13 00:57:14;;;;;;;38.25;35.85;;;;;;;13.26;100.00;101321.44;6040523;23;20043;-83
2022/07/13 00:59:41;;;;;;;40.03;37.20;;;;;;;13.73;100.00;101314.06;6041658;23;20035;-84
2022/07/13 01:02:09;;;;;;;45.10;42.55;;;;;;;13.77;100.00;101311.78;6041784;23;20027;-80
2022/07/13 01:04:36;;;;;;;44.80;42.40;;;;;;;14.18;100.00;101322.06;6041560;23;20032;-82
2022/07/13 01:07:05;;;;;;;40.03;37.20;;;;;;;13.37;100.00;101327.94;6041948;23;20034;-81
2022/07/13 01:09:33;;;;;;;44.55;41.55;;;;;;;13.96;100.00;101318.91;6041408;23;20102;-82
2022/07/13 01:12:00;;;;;;;38.38;36.28;;;;;;;13.97;100.00;101315.19;6041933;23;20338;-82
2022/07/13 01:14:29;;;;;;;41.60;39.20;;;;;;;14.31;100.00;101311.31;6041441;23;20042;-82
2022/07/13 01:16:56;;;;;;;35.00;32.67;;;;;;;14.17;100.00;101312.41;6042204;23;20039;-83
2022/07/13 01:19:25;;;;;;;40.30;38.05;;;;;;;14.40;100.00;101314.50;6041635;23;20027;-82
2022/07/13 01:21:57;;;;;;;38.30;35.95;;;;;;;13.83;100.00;101313.63;6041084;23;20023;-84
2022/07/13 01:24:26;;;;;;;;;;;;;;;14.17;100.00;101307.88;6041783;23;20024;-82
2022/07/13 01:26:53;;;;;;;39.63;36.22;;;;;;;13.43;100.00;101324.44;6041627;23;19918;-82
2022/07/13 01:29:26;;;;;;;39.10;36.30;;;;;;;13.76;100.00;101316.31;6042318;23;20090;-82
2022/07/13 01:31:59;;;;;;;38.08;35.47;;;;;;;13.85;100.00;101303.53;6041606;23;20034;-82
2022/07/13 01:34:26;;;;;;;40.30;37.83;;;;;;;13.64;100.00;101310.81;6041498;23;20087;-82
2022/07/13 01:36:54;;;;;;;35.92;33.92;;;;;;;13.77;100.00;101314.47;6041387;23;20023;-83
2022/07/13 01:39:22;;;;;;;35.65;33.22;;;;;;;13.78;100.00;101318.78;6041577;23;20037;-85
2022/07/13 01:41:52;;;;;;;38.58;36.28;;;;;;;13.90;100.00;101314.41;6041566;23;20027;-83
2022/07/13 01:44:19;;;;;;;38.83;36.22;;;;;;;13.95;100.00;101319.94;6041501;23;20020;-84
2022/07/13 01:46:46;;;;;;;35.78;33.35;;;;;;;14.14;100.00;101324.34;6041100;23;20098;-85
2022/07/13 01:49:13;;;;;;;37.97;35.40;;;;;;;14.16;100.00;101334.81;6041071;23;20461;-83
2022/07/13 01:51:46;;;;;;;37.17;34.88;;;;;;;14.11;100.00;101340.00;6041289;23;20019;-81
2022/07/13 01:54:13;;;;;;;33.67;31.58;;;;;;;14.03;100.00;101342.91;6041473;23;20035;-82
2022/07/13 01:56:40;;;;;;;32.47;30.48;;;;;;;14.42;100.00;101340.00;6040305;23;20031;-82
2022/07/13 01:59:08;;;;;;;31.52;29.63;;;;;;;14.60;100.00;101349.97;6040770;23;20027;-82
2022/07/13 02:01:35;;;;;;;34.22;32.10;;;;;;;14.47;100.00;101344.69;6022321;23;20028;-84
2022/07/13 02:04:05;;;;;;;36.83;34.60;;;;;;;14.23;100.00;101348.16;6016397;23;20024;-81
2022/07/13 02:06:32;;;;;;;35.60;33.30;;;;;;;14.30;100.00;101343.56;6015697;23;20034;-81
2022/07/13 02:08:59;;;;;;;38.17;35.97;;;;;;;14.38;100.00;101330.78;6012899;23;20031;-83
2022/07/13 02:11:26;;;;;;;34.50;32.30;;;;;;;13.97;100.00;101340.03;6018409;23;20024;-83
2022/07/13 02:13:54;;;;;;;37.97;35.78;;;;;;;14.53;100.00;101340.38;6015798;23;20024;-82
2022/07/13 02:16:22;;;;;;;35.47;33.58;;;;;;;14.53;100.00;101338.50;6017504;23;20024;-83
2022/07/13 02:18:49;;;;;;;38.15;36.05;;;;;;;14.39;100.00;101352.97;6016792;23;20050;-83
2022/07/13 02:21:16;;;;;;;46.63;44.03;;;;;;;14.57;100.00;101334.38;6016823;23;20024;-83
2022/07/13 02:23:43;;;;;;;41.97;39.55;;;;;;;14.70;100.00;101335.28;6016931;23;20087;-83
2022/07/13 02:26:10;;;;;;;96.90;91.57;;;;;;;14.67;100.00;101341.88;6015472;23;20028;-81
2022/07/13 02:28:38;;;;;;;76.55;72.55;;;;;;;14.52;100.00;101344.88;6020871;23;20103;-81
2022/07/13 02:31:05;;;;;;;91.47;86.68;;;;;;;14.35;100.00;101351.78;6015481;23;20023;-81
2022/07/13 02:33:33;;;;;;;85.85;81.35;;;;;;;14.59;100.00;101350.19;6016108;23;20386;-82
2022/07/13 02:36:01;;;;;;;79.25;74.78;;;;;;;14.62;100.00;101350.59;6013780;23;20028;-81
2022/07/13 02:38:28;;;;;;;87.60;83.00;;;;;;;14.69;100.00;101334.47;6013378;23;20028;-82
2022/07/13 02:40:57;;;;;;;64.70;61.10;;;;;;;14.51;100.00;101331.72;6017813;23;20024;-83
2022/07/13 02:43:23;;;;;;;56.60;53.60;;;;;;;14.15;100.00;101342.00;6014387;23;20024;-81
2022/07/13 02:45:51;;;;;;;45.63;42.78;;;;;;;13.89;100.00;101336.81;6011193;23;20027;-82
2022/07/13 02:48:20;;;;;;;49.28;46.35;;;;;;;14.36;100.00;101342.72;6013988;23;20027;-82
2022/07/13 02:50:48;;;;;;;29.00;27.10;;;;;;;14.08;100.00;101346.56;6011832;23;20027;-81
2022/07/13 02:53:28;;;;;;;30.20;28.30;;;;;;;14.71;100.00;101340.44;6019449;23;20020;-82
2022/07/13 02:55:55;;;;;;;30.85;28.73;;;;;;;14.27;100.00;101344.00;6041615;23;20019;-82
2022/07/13 02:58:24;;;;;;;30.10;27.80;;;;;;;14.68;100.00;101337.38;6042132;23;20023;-80
2022/07/13 03:00:51;;;;;;;30.40;28.13;;;;;;;14.41;100.00;101338.34;6040890;23;20027;-82
2022/07/13 03:03:19;;;;;;;56.50;52.83;;;;;;;13.92;100.00;101339.88;6041878;23;20341;-81
2022/07/13 03:05:46;;;;;;;38.63;36.22;;;;;;;14.53;100.00;101332.34;6041773;23;20027;-83
2022/07/13 03:08:14;;;;;;;40.63;37.90;;;;;;;14.49;100.00;101331.09;6043358;23;20430;-81
2022/07/13 03:10:41;;;;;;;42.25;39.42;;;;;;;14.44;100.00;101331.78;6042503;23;20106;-82
2022/07/13 03:13:13;;;;;;;41.70;38.97;;;;;;;14.60;100.00;101346.47;6043744;23;20027;-84
2022/07/13 03:15:41;;;;;;;47.13;43.45;;;;;;;14.72;100.00;101339.41;6041458;23;20094;-86
2022/07/13 03:18:08;;;;;;;29.25;27.25;;;;;;;14.83;100.00;101341.38;6042219;23;20019;-85
2022/07/13 03:20:36;;;;;;;28.13;26.50;;;;;;;14.96;100.00;101334.25;6041258;23;20031;-84
2022/07/13 03:23:03;;;;;;;27.70;26.15;;;;;;;14.60;100.00;101346.47;6042948;23;20033;-81
2022/07/13 03:25:32;;;;;;;50.17;47.10;;;;;;;14.48;100.00;101334.81;6045170;23;20026;-82
2022/07/13 03:27:58;;;;;;;47.67;44.90;;;;;;;15.02;100.00;101344.09;6046423;23;20459;-82
2022/07/13 03:30:25;;;;;;;51.30;48.70;;;;;;;22.86;100.00;101326.88;6046388;23;20054;-81
2022/07/13 03:32:55;;;;;;;48.08;45.40;;;;;;;24.53;100.00;101328.28;6044360;23;20026;-83
2022/07/13 03:35:22;;;;;;;42.90;40.65;;;;;;;24.94;100.00;101330.63;6038431;23;20027;-81
2022/07/13 03:37:49;;;;;;;27.30;25.38;;;;;;;25.15;98.31;101331.25;6039102;23;20039;-82
2022/07/13 03:40:16;;;;;;;37.70;35.58;;;;;;;25.21;95.83;101330.09;6042460;23;20024;-81
2022/07/13 03:42:44;;;;;;;36.47;33.40;;;;;;;16.90;100.00;101351.16;6046180;23;20040;-83
2022/07/13 03:45:11;;;;;;;56.88;53.58;;;;;;;15.66;100.00;101350.00;6041792;23;20031;-82
2022/07/13 03:47:39;;;;;;;49.20;46.70;;;;;;;19.32;100.00;101338.47;6043086;23;20027;-83
2022/07/13 03:50:07;;;;;;;54.78;51.67;;;;;;;16.92;100.00;101332.97;6039151;23;20405;-78
2022/07/13 03:52:34;;;;;;;47.28;44.55;;;;;;;16.12;100.00;101328.00;6042781;23;20031;-79
2022/07/13 03:55:01;;;;;;;45.60;43.10;;;;;;;16.00;100.00;101344.00;6045154;23;20094;-80
2022/07/13 03:57:28;;;;;;;48.00;45.38;;;;;;;15.86;100.00;101333.72;6044840;23;20023;-80
2022/07/13 03:59:56;;;;;;;52.15;49.50;;;;;;;15.95;100.00;101332.38;6041197;23;20023;-79
2022/07/13 04:02:24;;;;;;;50.65;47.67;;;;;;;15.72;100.00;101341.91;6037824;23;20094;-78
2022/07/13 04:04:51;;;;;;;45.78;43.28;;;;;;;15.61;100.00;101339.94;6040510;23;20106;-80
2022/07/13 04:07:18;;;;;;;40.35;38.05;;;;;;;15.66;100.00;101350.00;6042547;23;20542;-80
2022/07/13 04:09:44;;;;;;;40.65;38.35;;;;;;;15.89;100.00;101344.81;6040988;23;20102;-80
2022/07/13 04:12:11;;;;;;;34.17;32.00;;;;;;;16.04;100.00;101341.72;6041087;23;20525;-80
2022/07/13 04:14:38;;;;;;;36.25;34.00;;;;;;;16.10;100.00;101348.03;6047810;23;20090;-80
2022/07/13 04:17:06;;;;;;;36.63;34.58;;;;;;;16.44;100.00;101339.28;6044778;23;20082;-79
2022/07/13 04:19:34;;;;;;;33.97;31.95;;;;;;;16.47;100.00;101338.00;6044075;23;20023;-79
2022/07/13 04:22:01;;;;;;;35.30;33.10;;;;;;;16.45;100.00;101342.78;6043911;23;20033;-80
2022/07/13 04:24:27;;;;;;;26.13;24.77;;;;;;;16.62;100.00;101335.69;6039241;23;20034;-81
2022/07/13 04:26:54;;;;;;;26.38;24.83;;;;;;;16.70;100.00;101340.75;6038538;23;20031;-80
2022/07/13 04:29:21;;;;;;;27.25;25.48;;;;;;;16.91;100.00;101343.91;6047921;23;20027;-79
2022/07/13 04:31:48;;;;;;;25.92;24.50;;;;;;;16.97;100.00;101332.25;6043666;23;20027;-80
2022/07/13 04:34:16;;;;;;;26.52;24.92;;;;;;;17.12;100.00;101337.97;6046631;23;20027;-84
2022/07/13 04:36:43;;;;;;;24.27;22.88;;;;;;;17.17;100.00;101342.63;6046624;23;20023;-80
2022/07/13 04:39:11;;;;;;;26.08;24.67;;;;;;;17.00;100.00;101337.16;6042468;23;20031;-79
2022/07/13 04:41:38;;;;;;;26.30;24.90;;;;;;;17.19;100.00;101337.88;6046728;23;20467;-79
2022/07/13 04:44:05;;;;;;;26.10;24.20;;;;;;;17.24;100.00;101337.16;6043264;23;20055;-80
2022/07/13 04:46:32;;;;;;;24.55;23.00;;;;;;;17.19;100.00;101340.53;6045054;23;20034;-79
2022/07/13 04:48:59;;;;;;;25.90;24.00;;;;;;;17.43;100.00;101344.03;6042068;23;20457;-80
2022/07/13 04:51:27;;;;;;;25.58;23.90;;;;;;;17.77;100.00;101336.97;6042253;23;20019;-80
2022/07/13 04:53:54;;;;;;;25.63;24.05;;;;;;;17.97;100.00;101338.38;6047997;23;20381;-80
2022/07/13 04:56:21;;;;;;;25.58;23.88;;;;;;;18.43;100.00;101326.59;6047291;23;20030;-79
2022/07/13 04:58:48;;;;;;;25.83;24.20;;;;;;;18.73;100.00;101331.69;6042626;23;20035;-79
2022/07/13 05:01:15;;;;;;;23.90;22.45;;;;;;;18.98;100.00;101328.56;6045697;23;20019;-83
2022/07/13 05:03:42;;;;;;;24.70;23.05;;;;;;;19.23;100.00;101340.75;6042090;23;20070;-79
2022/07/13 05:06:09;;;;;;;24.15;22.65;;;;;;;19.32;100.00;101335.75;6050371;23;20087;-80
2022/07/13 05:08:44;;;;;;;35.08;32.78;;;;;;;19.71;100.00;101343.81;6042569;23;20453;-79
2022/07/13 05:11:12;;;;;;;25.45;23.85;;;;;;;19.87;100.00;101349.13;6046844;23;20031;-79
2022/07/13 05:13:38;;;;;;;25.95;24.33;;;;;;;19.64;100.00;101342.13;6046871;23;20027;-78
2022/07/13 05:16:06;;;;;;;26.65;24.65;;;;;;;19.70;100.00;101342.19;6046645;23;20027;-80
2022/07/13 05:18:33;;;;;;;25.60;23.90;;;;;;;19.82;100.00;101341.00;6051032;23;20023;-79
2022/07/13 05:21:00;;;;;;;24.33;22.83;;;;;;;20.20;100.00;101352.72;6043939;23;20031;-79
2022/07/13 05:23:28;;;;;;;26.45;24.48;;;;;;;19.84;100.00;101344.25;6050719;23;20023;-79
2022/07/13 05:25:58;;;;;;;23.80;22.40;;;;;;;19.85;100.00;101347.78;6042486;23;20023;-79
2022/07/13 05:28:25;;;;;;;24.92;23.27;;;;;;;19.98;100.00;101339.28;6047753;23;20094;-79
2022/07/13 05:30:53;;;;;;;24.60;22.92;;;;;;;20.32;100.00;101339.06;6046468;23;20031;-79
2022/07/13 05:33:20;;;;;;;25.05;23.35;;;;;;;20.27;100.00;101349.81;6052363;23;20023;-79
2022/07/13 05:35:47;;;;;;;25.75;24.15;;;;;;;20.45;100.00;101346.72;6045556;23;20054;-83
2022/07/13 05:38:14;;;;;;;24.17;22.67;;;;;;;20.42;100.00;101349.13;6048081;23;20389;-80
2022/07/13 05:40:41;;;;;;;24.23;22.45;;;;;;;20.19;100.00;101344.88;6046898;23;20031;-80
2022/07/13 05:43:09;;;;;;;24.70;22.77;;;;;;;20.67;100.00;101343.19;6052040;23;20034;-79
2022/07/13 05:45:37;;;;;;;24.45;22.55;;;;;;;20.66;100.00;101344.25;6053151;23;20422;-80
2022/07/13 05:48:04;;;;;;;24.58;22.90;;;;;;;20.88;100.00;101344.97;6047443;23;20024;-79
2022/07/13 05:50:31;;;;;;;25.38;23.52;;;;;;;20.69;100.00;101341.03;6047952;23;20379;-79
2022/07/13 05:52:58;;;;;;;25.50;23.60;;;;;;;21.18;100.00;101344.34;6041603;23;20023;-80
2022/07/13 05:55:25;;;;;;;24.42;22.58;;;;;;;21.11;100.00;101346.44;6046061;23;20027;-79
2022/07/13 05:57:52;;;;;;;24.17;22.55;;;;;;;21.42;100.00;101342.06;6048753;23;20038;-79
2022/07/13 06:00:20;;;;;;;25.17;23.67;;;;;;;21.33;99.88;101340.06;6046843;23;20023;-80
2022/07/13 06:02:47;;;;;;;25.13;23.52;;;;;;;21.37;100.00;101338.53;6049771;23;20398;-79
2022/07/13 06:05:15;;;;;;;25.77;24.08;;;;;;;21.63;100.00;101336.72;6045916;23;20027;-79
2022/07/13 06:07:42;;;;;;;25.20;23.50;;;;;;;21.84;100.00;101332.19;6043249;23;20069;-80
2022/07/13 06:10:10;;;;;;;26.17;23.63;;;;;;;21.68;100.00;101334.03;6051334;23;20028;-79
2022/07/13 06:12:37;;;;;;;24.73;23.13;;;;;;;21.59;99.22;101335.63;6044103;23;20361;-78
2022/07/13 06:15:04;;;;;;;25.27;23.67;;;;;;;21.62;100.00;101335.91;6043755;23;20028;-80
2022/07/13 06:17:36;;;;;;;23.98;22.45;;;;;;;21.59;100.00;101325.63;6049527;23;20027;-79
2022/07/13 06:20:05;;;;;;;25.40;23.42;;;;;;;21.60;100.00;101332.66;6047157;23;20029;-79
2022/07/13 06:22:35;;;;;;;25.30;23.48;;;;;;;21.98;100.00;101332.50;6047157;23;20042;-79
2022/07/13 06:25:03;;;;;;;26.13;24.20;;;;;;;22.04;92.73;101331.44;6041818;23;20042;-81
2022/07/13 06:27:30;;;;;;;26.98;24.98;;;;;;;22.38;95.19;101327.16;6048311;23;20094;-80
2022/07/13 06:29:56;;;;;;;32.65;30.75;;;;;;;21.90;89.65;101331.94;6046987;23;20397;-80
2022/07/13 06:32:23;;;;;;;38.85;36.75;;;;;;;22.03;84.46;101324.38;6047414;23;20060;-79
2022/07/13 06:34:51;;;;;;;39.72;37.53;;;;;;;22.53;83.56;101320.94;6047143;23;20023;-80
2022/07/13 06:37:18;;;;;;;33.28;30.88;;;;;;;22.15;81.41;101327.69;6047215;23;20037;-80
2022/07/13 06:39:45;;;;;;;35.70;33.30;;;;;;;22.93;83.24;101313.84;6043246;23;20023;-79
2022/07/13 06:42:13;;;;;;;39.90;37.50;;;;;;;22.45;78.63;101317.97;6041625;23;20027;-79
2022/07/13 06:44:40;;;;;;;42.22;39.55;;;;;;;22.64;81.79;101322.56;6046520;23;20031;-83
2022/07/13 06:47:07;;;;;;;38.78;36.38;;;;;;;22.68;77.34;101322.84;6046244;23;20030;-79
2022/07/13 06:49:35;;;;;;;39.00;36.50;;;;;;;22.83;83.75;101314.69;6048441;23;20035;-79
2022/07/13 06:52:07;;;;;;;37.97;35.47;;;;;;;22.89;75.11;101304.66;6042010;23;20031;-82
2022/07/13 06:54:34;;;;;;;37.92;35.45;;;;;;;23.01;71.49;101313.34;6044031;23;20019;-79
2022/07/13 06:57:01;;;;;;;39.13;36.42;;;;;;;22.73;79.33;101309.31;6049061;23;20030;-79
2022/07/13 06:59:28;;;;;;;41.00;38.40;;;;;;;22.94;73.82;101302.00;6046399;23;20038;-80
2022/07/13 07:01:56;;;;;;;39.80;37.20;;;;;;;22.93;81.34;101304.91;6045364;23;20050;-79
2022/07/13 07:04:23;;;;;;;38.40;36.00;;;;;;;22.77;74.04;101314.97;6044673;23;20027;-80
2022/07/13 07:06:50;;;;;;;47.75;45.15;;;;;;;23.37;80.37;101315.94;6044581;23;20035;-79
2022/07/13 07:09:18;;;;;;;45.40;43.00;;;;;;;23.75;74.53;101316.31;6046483;23;20034;-80
2022/07/13 07:11:46;;;;;;;46.42;44.03;;;;;;;23.16;67.76;101317.91;6044869;23;20034;-79
2022/07/13 07:14:13;;;;;;;51.67;49.05;;;;;;;23.53;71.98;101327.50;6041204;23;20031;-82
2022/07/13 07:16:39;;;;;;;45.92;43.45;;;;;;;23.84;72.65;101328.19;6041402;23;20039;-79
2022/07/13 07:19:07;;;;;;;50.47;47.88;;;;;;;23.93;70.60;101328.41;6040417;23;20027;-79
2022/07/13 07:21:35;;;;;;;46.78;44.42;;;;;;;24.35;76.59;101325.13;6040231;23;20027;-80
2022/07/13 07:24:01;;;;;;;50.03;47.40;;;;;;;24.33;70.37;101326.53;6040703;23;20375;-80
2022/07/13 07:26:32;;;;;;;47.33;44.72;;;;;;;24.31;75.89;101326.00;6041413;23;20031;-80
2022/07/13 07:28:59;;;;;;;47.40;44.78;;;;;;;24.47;71.97;101337.56;6039906;23;20034;-79
2022/07/13 07:31:31;;;;;;;52.13;49.22;;;;;;;24.60;71.95;101329.59;6039789;23;20064;-80
2022/07/13 07:33:59;;;;;;;32.92;30.73;;;;;;;24.40;73.26;101333.25;6041696;23;20019;-81
2022/07/13 07:36:25;;;;;;;35.58;33.47;;;;;;;24.94;77.72;101330.63;6040995;23;20019;-79
2022/07/13 07:38:52;;;;;;;39.30;37.10;;;;;;;24.10;73.32;101337.00;6040166;23;20035;-80
2022/07/13 07:41:19;;;;;;;38.65;36.35;;;;;;;24.82;81.39;101339.97;6039569;23;20023;-79
2022/07/13 07:43:49;;;;;;;35.65;33.55;;;;;;;24.37;79.80;101339.25;6041198;23;20459;-79
2022/07/13 07:46:16;;;;;;;35.65;33.58;;;;;;;24.77;84.18;101342.72;6039523;23;20066;-80
2022/07/13 07:48:43;;;;;;;33.40;31.15;;;;;;;24.39;81.04;101347.91;6041791;23;20027;-80
2022/07/13 07:51:10;;;;;;;31.15;29.15;;;;;;;24.63;83.65;101342.59;6041731;23;20019;-80
2022/07/13 07:53:37;;;;;;;33.22;31.00;;;;;;;24.46;71.13;101350.34;6040706;23;20027;-79
2022/07/13 07:56:04;;;;;;;33.80;31.60;;;;;;;24.70;79.33;101344.97;6042004;23;20032;-80
2022/07/13 07:58:31;;;;;;;35.70;33.33;;;;;;;24.80;77.73;101344.06;6040197;23;20034;-81
2022/07/13 08:00:59;;;;;;;35.67;33.20;;;;;;;24.58;67.19;101339.91;6039987;23;20027;-81
2022/07/13 08:03:26;;;;;;;34.08;31.88;;;;;;;25.01;68.17;101340.03;6040904;23;20030;-79
2022/07/13 08:05:55;;;;;;;37.55;35.15;;;;;;;24.43;78.16;101342.75;6040197;23;20023;-79
2022/07/13 08:08:22;;;;;;;35.67;33.58;;;;;;;25.00;68.99;101338.44;6040080;23;20117;-80
2022/07/13 08:10:48;;;;;;;31.58;29.48;;;;;;;24.95;70.69;101329.53;6040425;23;20027;-80
2022/07/13 08:13:15;;;;;;;35.97;33.78;;;;;;;24.43;80.97;101329.19;6039826;23;20020;-80
2022/07/13 08:15:42;;;;;;;35.58;33.38;;;;;;;24.87;69.00;101329.06;6040725;23;20038;-79
2022/07/13 08:18:10;;;;;;;32.58;30.42;;;;;;;24.89;68.00;101321.41;6041493;23;20030;-79
2022/07/13 08:20:37;;;;;;;34.22;31.92;;;;;;;25.16;69.62;101317.34;6039881;23;20333;-80
2022/07/13 08:23:50;;;;;;;32.72;30.40;;;;;;;25.26;72.84;101322.66;6042002;23;20029;-79
2022/07/13 08:25:51;;;;;;;33.95;31.75;;;;;;;25.28;63.36;101309.59;6040168;23;20098;-79
2022/07/13 08:28:18;;;;;;;33.42;31.33;;;;;;;24.92;60.80;101314.59;6041544;23;20023;-78
2022/07/13 08:30:45;;;;;;;31.88;29.63;;;;;;;25.65;57.75;101294.44;6040739;23;20520;-79
2022/07/13 08:33:13;;;;;;;34.53;32.33;;;;;;;25.76;60.54;101298.63;6039527;23;20027;-80
2022/07/13 08:38:37;;;;;;;35.72;33.40;;;;;;;25.81;62.26;101295.88;6041396;23;20464;-79
2022/07/13 08:41:05;;;;;;;33.90;31.40;;;;;;;25.87;59.18;101293.91;6041091;23;20020;-80
2022/07/13 08:43:33;;;;;;;33.63;31.60;;;;;;;25.90;54.61;101287.88;6041369;23;20047;-82
2022/07/13 08:46:03;;;;;;;37.35;35.15;;;;;;;25.95;57.32;101286.97;6043081;23;20417;-79
2022/07/13 08:48:38;;;;;;;32.55;30.55;;;;;;;26.21;61.47;101287.38;6039531;23;20030;-80
2022/07/13 08:51:06;;;;;;;27.73;25.83;;;;;;;26.35;56.41;101281.97;6040871;23;20023;-80
2022/07/13 08:53:34;;;;;;;26.85;25.27;;;;;;;26.30;52.53;101282.06;6039918;23;20027;-81
2022/07/13 08:56:01;;;;;;;27.52;25.73;;;;;;;25.61;50.20;101282.53;6042684;23;20539;-80
2022/07/13 08:58:28;;;;;;;28.63;26.55;;;;;;;26.11;54.84;101276.66;6043782;23;20489;-79
2022/07/13 09:00:55;;;;;;;27.98;25.83;;;;;;;26.39;51.18;101267.47;6039563;23;20034;-78
2022/07/13 09:03:22;;;;;;;28.85;26.63;;;;;;;26.47;54.93;101265.97;6040745;23;20024;-79
2022/07/13 09:05:50;;;;;;;28.80;26.25;;;;;;;26.47;49.91;101268.69;6041101;23;20525;-79
2022/07/13 09:08:20;;;;;;;27.85;25.95;;;;;;;26.98;48.09;101254.13;6041300;23;20081;-80
2022/07/13 09:10:57;;;;;;;31.00;28.48;;;;;;;26.81;52.98;101257.47;6041658;23;20034;-78
2022/07/13 09:13:39;;;;;;;31.02;28.70;;;;;;;26.37;46.67;101264.22;6040100;23;20110;-79
2022/07/13 09:16:14;;;;;;;29.17;27.05;;;;;;;26.80;44.92;101252.31;6042187;23;20038;-78
2022/07/13 09:18:41;;;;;;;30.23;28.05;;;;;;;26.75;43.63;101246.94;6042262;23;20079;-79
2022/07/13 09:21:10;;;;;;;28.67;26.88;;;;;;;27.05;42.65;101243.66;6047463;23;20027;-79
2022/07/13 09:23:37;;;;;;;29.60;27.70;;;;;;;27.24;46.85;101259.09;6042922;23;20023;-79
2022/07/13 09:26:04;;;;;;;29.58;27.42;;;;;;;27.15;45.58;101235.28;6041869;23;20484;-80
2022/07/13 09:28:43;;;;;;;28.15;26.35;;;;;;;26.58;43.14;101244.84;6045609;23;20031;-81
2022/07/13 09:31:10;;;;;;;28.98;27.08;;;;;;;26.79;43.14;101226.19;6042001;23;20031;-80
2022/07/13 09:33:40;;;;;;;30.73;28.52;;;;;;;26.74;40.17;101221.63;6040555;23;20031;-79
2022/07/13 09:36:13;;;;;;;26.58;24.88;;;;;;;27.31;47.85;101234.94;6042622;23;20353;-79
2022/07/13 09:38:42;;;;;;;28.38;26.58;;;;;;;26.63;52.65;101231.94;6041578;23;20019;-80
2022/07/13 09:41:18;;;;;;;27.40;25.60;;;;;;;27.31;44.50;101246.66;6041558;23;20389;-78
2022/07/13 09:46:56;;;;;;;25.20;23.60;;;;;;;27.29;44.36;101240.69;6041514;23;20085;-81
2022/07/13 09:49:37;;;;;;;28.73;26.75;;;;;;;27.28;39.85;101235.56;6041386;23;20035;-81
2022/07/13 09:52:08;;;;;;;25.85;24.10;;;;;;;27.43;39.79;101237.94;6040942;23;20063;-79
2022/07/13 09:54:37;;;;;;;26.02;24.13;;;;;;;27.00;45.51;101230.09;6040878;23;20031;-80
2022/07/13 09:57:07;;;;;;;27.30;25.40;;;;;;;26.17;40.58;101231.91;6041410;23;20024;-80
2022/07/13 09:59:36;;;;;;;26.65;24.85;;;;;;;26.50;48.32;101225.34;6040905;23;20027;-80
2022/07/13 10:02:04;;;;;;;26.80;24.98;;;;;;;27.03;52.22;101228.69;6040587;23;20465;-81
2022/07/13 10:04:32;;;;;;;27.10;25.23;;;;;;;27.29;53.48;101240.69;6041987;23;20441;-81
2022/07/13 10:07:00;;;;;;;27.85;25.95;;;;;;;27.28;53.85;101230.09;6040608;23;20050;-79
2022/07/13 10:09:29;;;;;;;28.63;26.48;;;;;;;27.95;37.51;101232.91;6041975;23;20034;-80
2022/07/13 10:11:57;;;;;;;28.38;26.58;;;;;;;26.74;56.14;101227.06;6040174;23;20027;-79
2022/07/13 10:14:26;;;;;;;29.42;27.63;;;;;;;27.12;50.57;101224.16;6040871;23;20349;-79
2022/07/13 10:16:59;;;;;;;28.65;26.88;;;;;;;27.36;52.38;101226.66;6040960;23;20057;-81
2022/07/13 10:19:26;;;;;;;;;;;;;;;27.52;48.05;101219.72;6038636;23;20023;-80
2022/07/13 10:22:04;;;;;;;28.20;26.50;;;;;;;27.29;40.81;101210.69;6041301;23;19925;-85
2022/07/13 10:24:32;;;;;;;26.15;24.55;;;;;;;27.40;51.35;101212.09;6041970;23;20031;-79
2022/07/13 10:27:22;;;;;;;29.23;27.58;;;;;;;27.50;50.16;101210.22;6041256;23;20030;-80
2022/07/13 10:29:50;;;;;;;28.48;26.80;;;;;;;27.89;35.63;101195.94;6041072;23;20396;-79
2022/07/13 10:32:18;;;;;;;26.63;25.02;;;;;;;27.28;46.71;101206.34;6040571;23;20023;-79
2022/07/13 10:34:52;;;;;;;31.10;29.42;;;;;;;27.27;41.12;101206.69;6040403;23;20445;-79
2022/07/13 10:37:19;;;;;;;32.75;30.70;;;;;;;27.74;35.49;101193.56;6040254;23;20023;-79
2022/07/13 10:40:12;;;;;;;29.73;27.92;;;;;;;28.28;38.01;101178.81;6040708;23;20019;-79
2022/07/13 10:43:26;;;;;;;27.45;25.65;;;;;;;28.52;32.85;101175.75;6036769;23;20065;-79
2022/07/13 10:45:53;;;;;;;29.77;27.92;;;;;;;28.86;35.34;101179.69;6042767;23;20023;-81
2022/07/13 10:48:45;;;;;;;27.77;26.05;;;;;;;28.13;36.11;101186.63;6041223;23;20094;-82
2022/07/13 10:51:23;;;;;;;29.75;27.67;;;;;;;27.68;35.83;101190.16;6025551;23;20056;-81
2022/07/13 10:54:11;;;;;;;30.27;28.38;;;;;;;28.23;45.48;101178.97;6040232;23;20037;-80
2022/07/13 10:57:12;;;;;;;28.17;26.08;;;;;;;27.85;38.31;101184.06;6040629;23;20532;-82
2022/07/13 10:59:49;;;;;;;39.03;36.65;;;;;;;26.93;52.80;101176.03;6040180;23;20023;-81
2022/07/13 11:02:44;;;;;;;44.85;42.45;;;;;;;27.58;45.39;101171.31;6040003;23;20095;-80
2022/07/13 11:05:11;;;;;;;25.35;23.65;;;;;;;26.90;41.55;101173.06;6026937;23;20027;-79
2022/07/13 11:07:42;;;;;;;27.50;25.33;;;;;;;26.95;38.88;101173.78;6040743;23;20329;-81
2022/07/13 11:10:17;;;;;;;26.02;24.08;;;;;;;27.47;48.45;101165.28;6040676;23;20472;-80
2022/07/13 11:12:58;;;;;;;26.95;25.05;;;;;;;27.73;36.23;101161.97;6040233;23;20035;-80
2022/07/13 11:15:41;;;;;;;26.15;24.35;;;;;;;28.13;42.23;101149.19;6038205;23;20037;-81
2022/07/13 11:18:31;;;;;;;24.50;22.80;;;;;;;28.53;34.89;101157.41;6039452;23;20027;-81